sensor_id;sensor_type;location;lat;lon;timestamp;temperature;humidity
36206;DHT22;22242;48.796;9.930;2023-05-10T00:01:49;13.20;99.90
36206;DHT22;22242;48.796;9.930;2023-05-10T00:04:16;13.20;99.90
36206;DHT22;22242;48.796;9.930;2023-05-10T00:06:45;13.30;99.90
36206;DHT22;22242;48.796;9.930;2023-05-10T00:09:12;13.20;99.90
36206;DHT22;22242;48.796;9.930;2023-05-10T00:11:39;13.10;99.90
36206;DHT22;22242;48.796;9.930;2023-05-10T00:14:06;13.20;99.90
36206;DHT22;22242;48.796;9.930;2023-05-10T00:16:33;13.20;99.90
36206;DHT22;22242;48.796;9.930;2023-05-10T00:19:00;13.20;99.90
36206;DHT22;22242;48.796;9.930;2023-05-10T00:21:27;13.10;99.90
36206;DHT22;22242;48.796;9.930;2023-05-10T00:23:56;13.20;99.90
36206;DHT22;22242;48.796;9.930;2023-05-10T00:26:23;13.10;99.90
36206;DHT22;22242;48.796;9.930;2023-05-10T00:28:53;13.10;99.90
36206;DHT22;22242;48.796;9.930;2023-05-10T00:31:20;13.10;99.90
36206;DHT22;22242;48.796;9.930;2023-05-10T00:33:47;13.00;99.90
36206;DHT22;22242;48.796;9.930;2023-05-10T00:36:14;13.00;99.90
36206;DHT22;22242;48.796;9.930;2023-05-10T00:38:41;13.00;99.90
36206;DHT22;22242;48.796;9.930;2023-05-10T00:41:10;13.00;99.90
36206;DHT22;22242;48.796;9.930;2023-05-10T00:43:38;13.10;99.90
36206;DHT22;22242;48.796;9.930;2023-05-10T00:46:06;13.10;99.90
36206;DHT22;22242;48.796;9.930;2023-05-10T00:48:34;13.00;99.90
36206;DHT22;22242;48.796;9.930;2023-05-10T00:51:02;13.00;99.90
36206;DHT22;22242;48.796;9.930;2023-05-10T00:53:31;13.00;99.90
36206;DHT22;22242;48.796;9.930;2023-05-10T00:55:58;13.00;99.90
36206;DHT22;22242;48.796;9.930;2023-05-10T00:58:27;13.00;99.90
36206;DHT22;22242;48.796;9.930;2023-05-10T01:00:56;12.90;99.90
36206;DHT22;22242;48.796;9.930;2023-05-10T01:03:24;12.90;99.90
36206;DHT22;22242;48.796;9.930;2023-05-10T01:05:52;12.90;99.90
36206;DHT22;22242;48.796;9.930;2023-05-10T01:08:19;12.90;99.90
36206;DHT22;22242;48.796;9.930;2023-05-10T01:10:46;12.80;99.90
36206;DHT22;22242;48.796;9.930;2023-05-10T01:13:30;12.80;99.90
36206;DHT22;22242;48.796;9.930;2023-05-10T01:15:59;12.80;99.90
36206;DHT22;22242;48.796;9.930;2023-05-10T01:18:29;12.80;99.90
36206;DHT22;22242;48.796;9.930;2023-05-10T01:21:17;12.80;99.90
36206;DHT22;22242;48.796;9.930;2023-05-10T01:27:09;12.80;99.90
36206;DHT22;22242;48.796;9.930;2023-05-10T01:30:06;12.60;99.90
36206;DHT22;22242;48.796;9.930;2023-05-10T01:32:40;12.60;99.90
36206;DHT22;22242;48.796;9.930;2023-05-10T01:35:17;12.60;99.90
36206;DHT22;22242;48.796;9.930;2023-05-10T01:37:48;12.50;99.90
36206;DHT22;22242;48.796;9.930;2023-05-10T01:40:23;12.40;99.90
36206;DHT22;22242;48.796;9.930;2023-05-10T01:42:57;12.40;99.90
36206;DHT22;22242;48.796;9.930;2023-05-10T01:45:27;12.30;99.90
36206;DHT22;22242;48.796;9.930;2023-05-10T01:48:05;12.30;99.90
36206;DHT22;22242;48.796;9.930;2023-05-10T01:50:35;12.10;99.90
36206;DHT22;22242;48.796;9.930;2023-05-10T01:53:07;12.20;99.90
36206;DHT22;22242;48.796;9.930;2023-05-10T01:55:41;12.20;99.90
36206;DHT22;22242;48.796;9.930;2023-05-10T01:58:14;12.10;99.90
36206;DHT22;22242;48.796;9.930;2023-05-10T02:00:44;12.10;99.90
36206;DHT22;22242;48.796;9.930;2023-05-10T02:03:13;12.10;99.90
36206;DHT22;22242;48.796;9.930;2023-05-10T02:05:41;12.10;99.90
36206;DHT22;22242;48.796;9.930;2023-05-10T02:08:10;12.10;99.90
36206;DHT22;22242;48.796;9.930;2023-05-10T02:10:42;12.10;99.90
36206;DHT22;22242;48.796;9.930;2023-05-10T02:13:11;12.10;99.90
36206;DHT22;22242;48.796;9.930;2023-05-10T02:15:40;12.10;99.90
36206;DHT22;22242;48.796;9.930;2023-05-10T02:18:09;12.00;99.90
36206;DHT22;22242;48.796;9.930;2023-05-10T02:20:39;11.90;99.90
36206;DHT22;22242;48.796;9.930;2023-05-10T02:23:06;11.90;99.90
36206;DHT22;22242;48.796;9.930;2023-05-10T02:25:36;11.90;99.90
36206;DHT22;22242;48.796;9.930;2023-05-10T02:28:06;11.90;99.90
36206;DHT22;22242;48.796;9.930;2023-05-10T02:30:35;11.90;99.90
36206;DHT22;22242;48.796;9.930;2023-05-10T02:33:04;11.90;99.90
36206;DHT22;22242;48.796;9.930;2023-05-10T02:35:32;11.90;99.90
36206;DHT22;22242;48.796;9.930;2023-05-10T02:38:01;12.00;99.90
36206;DHT22;22242;48.796;9.930;2023-05-10T02:40:30;11.90;99.90
36206;DHT22;22242;48.796;9.930;2023-05-10T02:42:57;11.90;99.90
36206;DHT22;22242;48.796;9.930;2023-05-10T02:45:28;11.70;99.90
36206;DHT22;22242;48.796;9.930;2023-05-10T02:47:56;11.80;99.90
36206;DHT22;22242;48.796;9.930;2023-05-10T02:50:27;11.80;99.90
36206;DHT22;22242;48.796;9.930;2023-05-10T02:52:59;11.80;99.90
36206;DHT22;22242;48.796;9.930;2023-05-10T02:55:32;11.70;99.90
36206;DHT22;22242;48.796;9.930;2023-05-10T02:58:00;11.80;99.90
36206;DHT22;22242;48.796;9.930;2023-05-10T03:00:28;11.70;99.90
36206;DHT22;22242;48.796;9.930;2023-05-10T03:02:55;11.70;99.90
36206;DHT22;22242;48.796;9.930;2023-05-10T03:05:22;11.70;99.90
36206;DHT22;22242;48.796;9.930;2023-05-10T03:07:50;11.70;99.90
36206;DHT22;22242;48.796;9.930;2023-05-10T03:10:18;11.70;99.90
36206;DHT22;22242;48.796;9.930;2023-05-10T03:12:56;11.70;99.90
36206;DHT22;22242;48.796;9.930;2023-05-10T03:15:30;11.70;99.90
36206;DHT22;22242;48.796;9.930;2023-05-10T03:18:03;11.70;99.90
36206;DHT22;22242;48.796;9.930;2023-05-10T03:20:35;11.80;99.90
36206;DHT22;22242;48.796;9.930;2023-05-10T03:23:07;11.70;99.90
36206;DHT22;22242;48.796;9.930;2023-05-10T03:25:35;11.70;99.90
36206;DHT22;22242;48.796;9.930;2023-05-10T03:28:07;11.70;99.90
36206;DHT22;22242;48.796;9.930;2023-05-10T03:30:35;11.70;99.90
36206;DHT22;22242;48.796;9.930;2023-05-10T03:33:04;11.70;99.90
36206;DHT22;22242;48.796;9.930;2023-05-10T03:35:34;11.70;99.90
36206;DHT22;22242;48.796;9.930;2023-05-10T03:38:02;11.70;99.90
36206;DHT22;22242;48.796;9.930;2023-05-10T03:40:29;11.60;99.90
36206;DHT22;22242;48.796;9.930;2023-05-10T03:42:58;11.70;99.90
36206;DHT22;22242;48.796;9.930;2023-05-10T03:45:27;11.60;99.90
36206;DHT22;22242;48.796;9.930;2023-05-10T03:47:54;11.60;99.90
36206;DHT22;22242;48.796;9.930;2023-05-10T03:50:21;11.60;99.90
36206;DHT22;22242;48.796;9.930;2023-05-10T03:52:48;11.60;99.90
36206;DHT22;22242;48.796;9.930;2023-05-10T03:55:16;11.70;99.90
36206;DHT22;22242;48.796;9.930;2023-05-10T03:57:43;11.70;99.90
36206;DHT22;22242;48.796;9.930;2023-05-10T04:00:11;11.70;99.90
36206;DHT22;22242;48.796;9.930;2023-05-10T04:02:42;11.70;99.90
36206;DHT22;22242;48.796;9.930;2023-05-10T04:05:15;11.70;99.90
36206;DHT22;22242;48.796;9.930;2023-05-10T04:07:42;11.70;99.90
36206;DHT22;22242;48.796;9.930;2023-05-10T04:10:11;11.70;99.90
36206;DHT22;22242;48.796;9.930;2023-05-10T04:12:38;11.70;99.90
36206;DHT22;22242;48.796;9.930;2023-05-10T04:15:06;11.70;99.90
36206;DHT22;22242;48.796;9.930;2023-05-10T04:17:33;11.70;99.90
36206;DHT22;22242;48.796;9.930;2023-05-10T04:20:01;11.80;99.90
36206;DHT22;22242;48.796;9.930;2023-05-10T04:22:29;11.80;99.90
36206;DHT22;22242;48.796;9.930;2023-05-10T04:24:56;11.80;99.90
36206;DHT22;22242;48.796;9.930;2023-05-10T04:27:23;11.80;99.90
36206;DHT22;22242;48.796;9.930;2023-05-10T04:29:50;11.80;99.90
36206;DHT22;22242;48.796;9.930;2023-05-10T04:32:17;11.80;99.90
36206;DHT22;22242;48.796;9.930;2023-05-10T04:34:44;11.80;99.90
36206;DHT22;22242;48.796;9.930;2023-05-10T04:37:13;11.80;99.90
36206;DHT22;22242;48.796;9.930;2023-05-10T04:39:40;11.80;99.90
36206;DHT22;22242;48.796;9.930;2023-05-10T04:42:07;11.80;99.90
36206;DHT22;22242;48.796;9.930;2023-05-10T04:44:34;12.00;99.90
36206;DHT22;22242;48.796;9.930;2023-05-10T04:47:01;12.00;99.90
36206;DHT22;22242;48.796;9.930;2023-05-10T04:49:29;11.90;99.90
36206;DHT22;22242;48.796;9.930;2023-05-10T04:51:56;12.00;99.90
36206;DHT22;22242;48.796;9.930;2023-05-10T04:54:24;12.00;99.90
36206;DHT22;22242;48.796;9.930;2023-05-10T04:56:51;12.00;99.90
36206;DHT22;22242;48.796;9.930;2023-05-10T04:59:18;12.10;99.90
36206;DHT22;22242;48.796;9.930;2023-05-10T05:01:47;12.20;99.90
36206;DHT22;22242;48.796;9.930;2023-05-10T05:04:15;12.20;99.90
36206;DHT22;22242;48.796;9.930;2023-05-10T05:06:42;12.30;99.90
36206;DHT22;22242;48.796;9.930;2023-05-10T05:09:09;12.30;99.90
36206;DHT22;22242;48.796;9.930;2023-05-10T05:11:38;12.30;99.90
36206;DHT22;22242;48.796;9.930;2023-05-10T05:14:06;12.30;99.90
36206;DHT22;22242;48.796;9.930;2023-05-10T05:16:33;12.30;99.90
36206;DHT22;22242;48.796;9.930;2023-05-10T05:19:00;12.30;99.90
36206;DHT22;22242;48.796;9.930;2023-05-10T05:21:27;12.20;99.90
36206;DHT22;22242;48.796;9.930;2023-05-10T05:23:54;12.30;99.90
36206;DHT22;22242;48.796;9.930;2023-05-10T05:26:21;12.40;99.90
36206;DHT22;22242;48.796;9.930;2023-05-10T05:28:50;12.30;99.90
36206;DHT22;22242;48.796;9.930;2023-05-10T05:31:19;12.20;99.90
36206;DHT22;22242;48.796;9.930;2023-05-10T05:33:46;12.20;99.90
36206;DHT22;22242;48.796;9.930;2023-05-10T05:36:13;12.20;99.90
36206;DHT22;22242;48.796;9.930;2023-05-10T05:38:40;12.30;99.90
36206;DHT22;22242;48.796;9.930;2023-05-10T05:41:07;12.60;99.90
36206;DHT22;22242;48.796;9.930;2023-05-10T05:43:34;12.90;99.90
36206;DHT22;22242;48.796;9.930;2023-05-10T05:46:02;13.10;99.90
36206;DHT22;22242;48.796;9.930;2023-05-10T05:48:30;13.00;99.90
36206;DHT22;22242;48.796;9.930;2023-05-10T05:50:57;13.00;99.90
36206;DHT22;22242;48.796;9.930;2023-05-10T05:53:24;13.00;99.90
36206;DHT22;22242;48.796;9.930;2023-05-10T05:55:52;12.80;99.90
36206;DHT22;22242;48.796;9.930;2023-05-10T05:58:19;12.80;99.90
36206;DHT22;22242;48.796;9.930;2023-05-10T06:00:47;12.80;99.90
36206;DHT22;22242;48.796;9.930;2023-05-10T06:03:16;12.90;99.90
36206;DHT22;22242;48.796;9.930;2023-05-10T06:05:43;12.90;99.90
36206;DHT22;22242;48.796;9.930;2023-05-10T06:08:10;12.80;99.90
36206;DHT22;22242;48.796;9.930;2023-05-10T06:10:37;12.80;99.90
36206;DHT22;22242;48.796;9.930;2023-05-10T06:13:04;12.90;99.90
36206;DHT22;22242;48.796;9.930;2023-05-10T06:15:31;12.90;99.90
36206;DHT22;22242;48.796;9.930;2023-05-10T06:17:59;12.80;99.90
36206;DHT22;22242;48.796;9.930;2023-05-10T06:20:27;12.90;99.90
36206;DHT22;22242;48.796;9.930;2023-05-10T06:22:54;13.00;99.90
36206;DHT22;22242;48.796;9.930;2023-05-10T06:25:21;12.90;99.90
36206;DHT22;22242;48.796;9.930;2023-05-10T06:27:48;13.00;99.90
36206;DHT22;22242;48.796;9.930;2023-05-10T06:30:15;13.20;99.90
36206;DHT22;22242;48.796;9.930;2023-05-10T06:32:43;13.10;99.90
36206;DHT22;22242;48.796;9.930;2023-05-10T06:35:10;13.30;99.90
36206;DHT22;22242;48.796;9.930;2023-05-10T06:37:39;13.20;99.90
36206;DHT22;22242;48.796;9.930;2023-05-10T06:40:07;13.30;99.90
36206;DHT22;22242;48.796;9.930;2023-05-10T06:42:34;13.60;99.90
36206;DHT22;22242;48.796;9.930;2023-05-10T06:45:02;13.50;99.90
36206;DHT22;22242;48.796;9.930;2023-05-10T06:47:29;13.60;99.90
36206;DHT22;22242;48.796;9.930;2023-05-10T06:49:57;13.50;99.90
36206;DHT22;22242;48.796;9.930;2023-05-10T06:52:24;13.50;99.90
36206;DHT22;22242;48.796;9.930;2023-05-10T06:54:52;13.40;99.90
36206;DHT22;22242;48.796;9.930;2023-05-10T06:57:19;13.40;99.90
36206;DHT22;22242;48.796;9.930;2023-05-10T06:59:47;13.60;99.90
36206;DHT22;22242;48.796;9.930;2023-05-10T07:02:14;13.80;99.90
36206;DHT22;22242;48.796;9.930;2023-05-10T07:04:41;13.60;99.90
36206;DHT22;22242;48.796;9.930;2023-05-10T07:07:08;13.60;99.90
36206;DHT22;22242;48.796;9.930;2023-05-10T07:09:35;13.50;99.90
36206;DHT22;22242;48.796;9.930;2023-05-10T07:12:04;13.50;99.90
36206;DHT22;22242;48.796;9.930;2023-05-10T07:14:31;13.50;99.90
36206;DHT22;22242;48.796;9.930;2023-05-10T07:16:58;13.40;99.90
36206;DHT22;22242;48.796;9.930;2023-05-10T07:19:25;13.60;99.90
36206;DHT22;22242;48.796;9.930;2023-05-10T07:21:52;13.50;99.90
36206;DHT22;22242;48.796;9.930;2023-05-10T07:24:19;13.60;99.90
36206;DHT22;22242;48.796;9.930;2023-05-10T07:26:46;13.50;99.90
36206;DHT22;22242;48.796;9.930;2023-05-10T07:29:14;13.60;99.90
36206;DHT22;22242;48.796;9.930;2023-05-10T07:31:41;13.70;99.90
36206;DHT22;22242;48.796;9.930;2023-05-10T07:34:08;13.50;99.90
36206;DHT22;22242;48.796;9.930;2023-05-10T07:36:35;13.40;99.90
36206;DHT22;22242;48.796;9.930;2023-05-10T07:39:02;13.30;99.90
36206;DHT22;22242;48.796;9.930;2023-05-10T07:41:29;13.30;99.90
36206;DHT22;22242;48.796;9.930;2023-05-10T07:43:56;13.20;99.90
36206;DHT22;22242;48.796;9.930;2023-05-10T07:46:25;13.40;99.90
36206;DHT22;22242;48.796;9.930;2023-05-10T07:48:52;13.40;99.90
36206;DHT22;22242;48.796;9.930;2023-05-10T07:51:18;13.40;99.90
36206;DHT22;22242;48.796;9.930;2023-05-10T07:53:45;13.60;99.90
36206;DHT22;22242;48.796;9.930;2023-05-10T07:56:23;13.60;99.90
36206;DHT22;22242;48.796;9.930;2023-05-10T07:58:53;13.60;99.90
36206;DHT22;22242;48.796;9.930;2023-05-10T08:01:21;13.70;99.90
36206;DHT22;22242;48.796;9.930;2023-05-10T08:03:49;13.50;99.90
36206;DHT22;22242;48.796;9.930;2023-05-10T08:06:17;13.90;99.90
36206;DHT22;22242;48.796;9.930;2023-05-10T08:08:45;14.10;99.90
36206;DHT22;22242;48.796;9.930;2023-05-10T08:11:15;14.10;99.90
36206;DHT22;22242;48.796;9.930;2023-05-10T08:13:42;14.10;99.90
36206;DHT22;22242;48.796;9.930;2023-05-10T08:16:09;14.40;99.90
36206;DHT22;22242;48.796;9.930;2023-05-10T08:18:36;14.40;99.90
36206;DHT22;22242;48.796;9.930;2023-05-10T08:21:04;14.10;99.90
36206;DHT22;22242;48.796;9.930;2023-05-10T08:23:32;14.10;99.90
36206;DHT22;22242;48.796;9.930;2023-05-10T08:25:59;14.10;99.90
36206;DHT22;22242;48.796;9.930;2023-05-10T08:28:26;14.10;99.90
36206;DHT22;22242;48.796;9.930;2023-05-10T08:30:54;14.00;99.90
36206;DHT22;22242;48.796;9.930;2023-05-10T08:33:21;14.00;99.90
36206;DHT22;22242;48.796;9.930;2023-05-10T08:35:47;13.80;99.90
36206;DHT22;22242;48.796;9.930;2023-05-10T08:38:16;13.80;99.90
36206;DHT22;22242;48.796;9.930;2023-05-10T08:40:44;13.90;99.90
36206;DHT22;22242;48.796;9.930;2023-05-10T08:43:12;14.00;99.90
36206;DHT22;22242;48.796;9.930;2023-05-10T08:45:41;14.30;99.90
36206;DHT22;22242;48.796;9.930;2023-05-10T08:48:11;14.60;99.90
36206;DHT22;22242;48.796;9.930;2023-05-10T08:50:39;14.50;99.90
36206;DHT22;22242;48.796;9.930;2023-05-10T08:53:09;14.50;99.90
36206;DHT22;22242;48.796;9.930;2023-05-10T08:55:38;14.80;99.90
36206;DHT22;22242;48.796;9.930;2023-05-10T08:58:06;15.30;99.90
36206;DHT22;22242;48.796;9.930;2023-05-10T09:00:34;15.30;99.90
36206;DHT22;22242;48.796;9.930;2023-05-10T09:03:02;15.20;99.90
36206;DHT22;22242;48.796;9.930;2023-05-10T09:05:29;15.70;99.90
36206;DHT22;22242;48.796;9.930;2023-05-10T09:07:56;15.30;99.90
36206;DHT22;22242;48.796;9.930;2023-05-10T09:10:25;14.60;99.90
36206;DHT22;22242;48.796;9.930;2023-05-10T09:12:56;14.60;99.90
36206;DHT22;22242;48.796;9.930;2023-05-10T09:15:23;14.50;99.90
36206;DHT22;22242;48.796;9.930;2023-05-10T09:17:50;14.30;99.90
36206;DHT22;22242;48.796;9.930;2023-05-10T09:20:17;14.30;99.90
36206;DHT22;22242;48.796;9.930;2023-05-10T09:22:45;14.10;99.90
36206;DHT22;22242;48.796;9.930;2023-05-10T09:25:13;14.00;99.90
36206;DHT22;22242;48.796;9.930;2023-05-10T09:27:41;13.60;99.90
36206;DHT22;22242;48.796;9.930;2023-05-10T09:30:14;13.60;99.90
36206;DHT22;22242;48.796;9.930;2023-05-10T09:32:43;13.50;99.90
36206;DHT22;22242;48.796;9.930;2023-05-10T09:35:12;13.50;99.90
36206;DHT22;22242;48.796;9.930;2023-05-10T09:37:39;13.40;99.90
36206;DHT22;22242;48.796;9.930;2023-05-10T09:40:11;13.30;99.90
36206;DHT22;22242;48.796;9.930;2023-05-10T09:42:38;13.40;99.90
36206;DHT22;22242;48.796;9.930;2023-05-10T09:45:07;13.50;99.90
36206;DHT22;22242;48.796;9.930;2023-05-10T09:47:36;13.60;99.90
36206;DHT22;22242;48.796;9.930;2023-05-10T09:50:04;13.70;99.90
36206;DHT22;22242;48.796;9.930;2023-05-10T09:52:46;13.80;99.90
36206;DHT22;22242;48.796;9.930;2023-05-10T09:55:13;14.00;99.90
36206;DHT22;22242;48.796;9.930;2023-05-10T09:57:40;13.70;99.90
36206;DHT22;22242;48.796;9.930;2023-05-10T10:00:08;13.80;99.90
36206;DHT22;22242;48.796;9.930;2023-05-10T10:02:40;13.60;99.90
36206;DHT22;22242;48.796;9.930;2023-05-10T10:05:08;13.80;99.90
36206;DHT22;22242;48.796;9.930;2023-05-10T10:07:35;13.60;99.90
36206;DHT22;22242;48.796;9.930;2023-05-10T10:10:03;13.60;99.90
36206;DHT22;22242;48.796;9.930;2023-05-10T10:12:30;13.60;99.90
36206;DHT22;22242;48.796;9.930;2023-05-10T10:14:59;13.60;99.90
36206;DHT22;22242;48.796;9.930;2023-05-10T10:17:27;13.50;99.90
36206;DHT22;22242;48.796;9.930;2023-05-10T10:19:57;13.40;99.90
36206;DHT22;22242;48.796;9.930;2023-05-10T10:22:24;13.50;99.90
36206;DHT22;22242;48.796;9.930;2023-05-10T10:24:51;13.50;99.90
36206;DHT22;22242;48.796;9.930;2023-05-10T10:27:23;13.60;99.90
36206;DHT22;22242;48.796;9.930;2023-05-10T10:30:00;13.90;99.90
36206;DHT22;22242;48.796;9.930;2023-05-10T10:32:36;14.30;99.90
36206;DHT22;22242;48.796;9.930;2023-05-10T10:35:06;14.80;99.90
36206;DHT22;22242;48.796;9.930;2023-05-10T10:37:43;14.90;99.90
36206;DHT22;22242;48.796;9.930;2023-05-10T10:40:24;15.30;99.90
36206;DHT22;22242;48.796;9.930;2023-05-10T10:42:52;15.20;99.90
36206;DHT22;22242;48.796;9.930;2023-05-10T10:45:20;15.20;99.90
36206;DHT22;22242;48.796;9.930;2023-05-10T10:47:47;14.90;99.90
36206;DHT22;22242;48.796;9.930;2023-05-10T10:50:16;14.80;99.90
36206;DHT22;22242;48.796;9.930;2023-05-10T10:52:43;15.20;99.90
36206;DHT22;22242;48.796;9.930;2023-05-10T10:55:12;15.10;99.90
36206;DHT22;22242;48.796;9.930;2023-05-10T10:57:47;15.10;99.90
36206;DHT22;22242;48.796;9.930;2023-05-10T11:00:24;14.90;99.90
36206;DHT22;22242;48.796;9.930;2023-05-10T11:02:52;14.90;99.90
36206;DHT22;22242;48.796;9.930;2023-05-10T11:05:40;14.70;99.90
36206;DHT22;22242;48.796;9.930;2023-05-10T11:08:12;14.80;99.90
36206;DHT22;22242;48.796;9.930;2023-05-10T11:10:48;14.90;99.90
36206;DHT22;22242;48.796;9.930;2023-05-10T11:13:27;15.00;99.90
36206;DHT22;22242;48.796;9.930;2023-05-10T11:15:55;15.20;99.90
36206;DHT22;22242;48.796;9.930;2023-05-10T11:18:24;15.30;99.90
36206;DHT22;22242;48.796;9.930;2023-05-10T11:20:56;15.30;99.90
36206;DHT22;22242;48.796;9.930;2023-05-10T11:23:29;15.60;99.90
36206;DHT22;22242;48.796;9.930;2023-05-10T11:25:57;15.40;99.90
36206;DHT22;22242;48.796;9.930;2023-05-10T11:28:24;15.40;99.90
36206;DHT22;22242;48.796;9.930;2023-05-10T11:30:52;15.30;99.90
36206;DHT22;22242;48.796;9.930;2023-05-10T11:33:20;15.20;99.90
36206;DHT22;22242;48.796;9.930;2023-05-10T11:35:47;15.10;99.90
36206;DHT22;22242;48.796;9.930;2023-05-10T11:38:15;15.10;99.90
36206;DHT22;22242;48.796;9.930;2023-05-10T11:40:43;15.20;99.90
36206;DHT22;22242;48.796;9.930;2023-05-10T11:43:10;15.30;99.90
36206;DHT22;22242;48.796;9.930;2023-05-10T11:45:39;15.20;99.90
36206;DHT22;22242;48.796;9.930;2023-05-10T11:48:06;15.10;99.90
36206;DHT22;22242;48.796;9.930;2023-05-10T11:50:34;15.10;99.90
36206;DHT22;22242;48.796;9.930;2023-05-10T11:53:01;15.00;99.90
36206;DHT22;22242;48.796;9.930;2023-05-10T11:55:30;14.90;99.90
36206;DHT22;22242;48.796;9.930;2023-05-10T11:58:01;14.40;99.90
36206;DHT22;22242;48.796;9.930;2023-05-10T12:00:29;14.10;99.90
36206;DHT22;22242;48.796;9.930;2023-05-10T12:02:56;14.00;99.90
36206;DHT22;22242;48.796;9.930;2023-05-10T12:05:24;13.70;99.90
36206;DHT22;22242;48.796;9.930;2023-05-10T12:07:51;13.60;99.90
36206;DHT22;22242;48.796;9.930;2023-05-10T12:10:28;13.60;99.90
36206;DHT22;22242;48.796;9.930;2023-05-10T12:12:56;13.50;99.90
36206;DHT22;22242;48.796;9.930;2023-05-10T12:15:24;13.50;99.90
36206;DHT22;22242;48.796;9.930;2023-05-10T12:17:51;13.80;99.90
36206;DHT22;22242;48.796;9.930;2023-05-10T12:20:20;13.80;99.90
36206;DHT22;22242;48.796;9.930;2023-05-10T12:22:50;13.90;99.90
36206;DHT22;22242;48.796;9.930;2023-05-10T12:25:18;14.00;99.90
36206;DHT22;22242;48.796;9.930;2023-05-10T12:27:51;14.10;99.90
36206;DHT22;22242;48.796;9.930;2023-05-10T12:30:22;14.30;99.90
36206;DHT22;22242;48.796;9.930;2023-05-10T12:32:50;14.50;99.90
36206;DHT22;22242;48.796;9.930;2023-05-10T12:35:18;14.70;99.90
36206;DHT22;22242;48.796;9.930;2023-05-10T12:37:47;14.90;99.90
36206;DHT22;22242;48.796;9.930;2023-05-10T12:40:14;14.80;99.90
36206;DHT22;22242;48.796;9.930;2023-05-10T12:42:41;14.80;99.90
36206;DHT22;22242;48.796;9.930;2023-05-10T12:45:12;14.70;99.90
36206;DHT22;22242;48.796;9.930;2023-05-10T12:47:39;14.10;99.90
36206;DHT22;22242;48.796;9.930;2023-05-10T12:50:06;13.60;99.90
36206;DHT22;22242;48.796;9.930;2023-05-10T12:52:33;13.10;99.90
36206;DHT22;22242;48.796;9.930;2023-05-10T12:55:01;12.90;99.90
36206;DHT22;22242;48.796;9.930;2023-05-10T12:57:29;12.70;99.90
36206;DHT22;22242;48.796;9.930;2023-05-10T12:59:56;12.70;99.90
36206;DHT22;22242;48.796;9.930;2023-05-10T13:02:24;12.60;99.90
36206;DHT22;22242;48.796;9.930;2023-05-10T13:04:52;12.60;99.90
36206;DHT22;22242;48.796;9.930;2023-05-10T13:07:19;12.60;99.90
36206;DHT22;22242;48.796;9.930;2023-05-10T13:09:46;12.60;99.90
36206;DHT22;22242;48.796;9.930;2023-05-10T13:12:14;12.70;99.90
36206;DHT22;22242;48.796;9.930;2023-05-10T13:14:41;12.60;99.90
36206;DHT22;22242;48.796;9.930;2023-05-10T13:17:08;12.70;99.90
36206;DHT22;22242;48.796;9.930;2023-05-10T13:19:36;12.80;99.90
36206;DHT22;22242;48.796;9.930;2023-05-10T13:22:03;12.80;99.90
36206;DHT22;22242;48.796;9.930;2023-05-10T13:24:31;12.80;99.90
36206;DHT22;22242;48.796;9.930;2023-05-10T13:26:58;12.80;99.90
36206;DHT22;22242;48.796;9.930;2023-05-10T13:29:25;12.70;99.90
36206;DHT22;22242;48.796;9.930;2023-05-10T13:31:52;12.70;99.90
36206;DHT22;22242;48.796;9.930;2023-05-10T13:34:20;13.00;99.90
36206;DHT22;22242;48.796;9.930;2023-05-10T13:36:48;13.00;99.90
36206;DHT22;22242;48.796;9.930;2023-05-10T13:39:15;13.10;99.90
36206;DHT22;22242;48.796;9.930;2023-05-10T13:41:42;13.20;99.90
36206;DHT22;22242;48.796;9.930;2023-05-10T13:44:12;13.30;99.90
36206;DHT22;22242;48.796;9.930;2023-05-10T13:46:39;13.30;99.90
36206;DHT22;22242;48.796;9.930;2023-05-10T13:49:06;13.30;99.90
36206;DHT22;22242;48.796;9.930;2023-05-10T13:51:34;13.50;99.90
36206;DHT22;22242;48.796;9.930;2023-05-10T13:54:02;13.40;99.90
36206;DHT22;22242;48.796;9.930;2023-05-10T13:56:30;13.30;99.90
36206;DHT22;22242;48.796;9.930;2023-05-10T13:58:57;13.40;99.90
36206;DHT22;22242;48.796;9.930;2023-05-10T14:01:24;13.50;99.90
36206;DHT22;22242;48.796;9.930;2023-05-10T14:03:51;13.60;99.90
36206;DHT22;22242;48.796;9.930;2023-05-10T14:06:18;13.90;99.90
36206;DHT22;22242;48.796;9.930;2023-05-10T14:08:45;13.90;99.90
36206;DHT22;22242;48.796;9.930;2023-05-10T14:11:14;14.20;99.90
36206;DHT22;22242;48.796;9.930;2023-05-10T14:13:41;14.00;99.90
36206;DHT22;22242;48.796;9.930;2023-05-10T14:16:08;14.10;99.90
36206;DHT22;22242;48.796;9.930;2023-05-10T14:18:35;13.90;99.90
36206;DHT22;22242;48.796;9.930;2023-05-10T14:21:03;14.10;99.90
36206;DHT22;22242;48.796;9.930;2023-05-10T14:23:30;14.10;99.90
36206;DHT22;22242;48.796;9.930;2023-05-10T14:25:57;14.10;99.90
36206;DHT22;22242;48.796;9.930;2023-05-10T14:28:26;14.20;99.90
36206;DHT22;22242;48.796;9.930;2023-05-10T14:30:53;14.50;99.90
36206;DHT22;22242;48.796;9.930;2023-05-10T14:33:20;14.60;99.90
36206;DHT22;22242;48.796;9.930;2023-05-10T14:35:47;14.70;99.90
36206;DHT22;22242;48.796;9.930;2023-05-10T14:38:15;14.80;99.90
36206;DHT22;22242;48.796;9.930;2023-05-10T14:40:42;14.70;99.90
36206;DHT22;22242;48.796;9.930;2023-05-10T14:43:09;14.60;99.90
36206;DHT22;22242;48.796;9.930;2023-05-10T14:45:38;14.80;99.90
36206;DHT22;22242;48.796;9.930;2023-05-10T14:48:05;14.80;99.90
36206;DHT22;22242;48.796;9.930;2023-05-10T14:50:36;14.70;99.90
36206;DHT22;22242;48.796;9.930;2023-05-10T14:53:04;14.80;99.90
36206;DHT22;22242;48.796;9.930;2023-05-10T14:55:31;14.70;99.90
36206;DHT22;22242;48.796;9.930;2023-05-10T14:57:58;14.60;99.90
36206;DHT22;22242;48.796;9.930;2023-05-10T15:00:25;14.70;99.90
36206;DHT22;22242;48.796;9.930;2023-05-10T15:02:53;14.80;99.90
36206;DHT22;22242;48.796;9.930;2023-05-10T15:05:20;14.80;99.90
36206;DHT22;22242;48.796;9.930;2023-05-10T15:07:48;14.80;99.90
36206;DHT22;22242;48.796;9.930;2023-05-10T15:10:16;15.10;99.90
36206;DHT22;22242;48.796;9.930;2023-05-10T15:12:43;14.90;99.90
36206;DHT22;22242;48.796;9.930;2023-05-10T15:15:10;14.90;99.90
36206;DHT22;22242;48.796;9.930;2023-05-10T15:17:37;14.90;99.90
36206;DHT22;22242;48.796;9.930;2023-05-10T15:20:07;14.80;99.90
36206;DHT22;22242;48.796;9.930;2023-05-10T15:22:34;14.80;99.90
36206;DHT22;22242;48.796;9.930;2023-05-10T15:25:02;14.80;99.90
36206;DHT22;22242;48.796;9.930;2023-05-10T15:27:29;15.00;99.90
36206;DHT22;22242;48.796;9.930;2023-05-10T15:29:56;14.90;99.90
36206;DHT22;22242;48.796;9.930;2023-05-10T15:32:25;14.80;99.90
36206;DHT22;22242;48.796;9.930;2023-05-10T15:34:52;14.70;99.90
36206;DHT22;22242;48.796;9.930;2023-05-10T15:37:20;14.70;99.90
36206;DHT22;22242;48.796;9.930;2023-05-10T15:39:49;14.70;99.90
36206;DHT22;22242;48.796;9.930;2023-05-10T15:42:16;14.70;99.90